Time;durP1;ratioP1;P1;durP2;ratioP2;P2;SDS_P1;SDS_P2;PMS_P1;PMS_P2;Temp;Humidity;BMP_temperature;BMP_pressure;BME280_temperature;BME280_humidity;BME280_pressure;Samples;Min_cycle;Max_cycle;Signal;HPM_P1;HPM_P2
2023/10/13 00:00:29;;;;;;;29.48;3.42;;;;;;;;;;6081370;23;20034;-60
2023/10/13 00:03:33;;;;;;;31.25;4.22;;;;;;;;;;6078893;23;20026;-59
2023/10/13 00:06:27;;;;;;;20.48;3.35;;;;;;;;;;6082066;23;20029;-58
2023/10/13 00:09:24;;;;;;;16.30;2.80;;;;;;;;;;6081106;23;20026;-59
2023/10/13 00:12:13;;;;;;;23.88;4.15;;;;;;;;;;6081214;23;20412;-60
2023/10/13 00:15:04;;;;;;;27.42;4.32;;;;;;;;;;6078505;23;20077;-59
2023/10/13 00:17:50;;;;;;;30.02;4.63;;;;;;;;;;6080426;23;20090;-58
2023/10/13 00:20:49;;;;;;;24.13;4.03;;;;;;;;;;6080295;23;20026;-67
2023/10/13 00:23:34;;;;;;;28.63;3.72;;;;;;;;;;6078432;23;20453;-66
2023/10/13 00:26:28;;;;;;;18.27;3.25;;;;;;;;;;6077897;23;20508;-67
2023/10/13 00:29:16;;;;;;;21.67;4.25;;;;;;;;;;6081322;23;20026;-67
2023/10/13 00:32:12;;;;;;;31.65;3.97;;;;;;;;;;6081536;23;20034;-67
2023/10/13 00:35:05;;;;;;;19.67;3.85;;;;;;;;;;6079755;23;20026;-67
2023/10/13 00:37:55;;;;;;;22.92;3.92;;;;;;;;;;6080791;23;20373;-48
2023/10/13 00:40:51;;;;;;;26.55;3.50;;;;;;;;;;6079914;23;20085;-60
2023/10/13 00:43:45;;;;;;;20.90;4.00;;;;;;;;;;6081904;23;20098;-60
2023/10/13 00:46:39;;;;;;;33.60;4.68;;;;;;;;;;6082087;23;20026;-60
2023/10/13 00:49:30;;;;;;;24.23;4.40;;;;;;;;;;6079271;23;20023;-61
2023/10/13 00:52:22;;;;;;;17.85;3.17;;;;;;;;;;6080199;23;20030;-60
2023/10/13 00:55:09;;;;;;;27.05;3.53;;;;;;;;;;6079714;23;20022;-57
2023/10/13 00:58:07;;;;;;;32.90;4.00;;;;;;;;;;6080239;23;20033;-51
2023/10/13 01:00:56;;;;;;;22.40;3.58;;;;;;;;;;6080035;23;20172;-47
2023/10/13 01:03:55;;;;;;;28.10;3.88;;;;;;;;;;6079698;23;20162;-45
2023/10/13 01:06:48;;;;;;;23.38;3.58;;;;;;;;;;6080612;23;20037;-46
2023/10/13 01:09:42;;;;;;;25.35;4.32;;;;;;;;;;6079265;23;20532;-48
2023/10/13 01:12:34;;;;;;;20.10;3.42;;;;;;;;;;6080210;23;20252;-60
2023/10/13 01:15:22;;;;;;;28.00;3.75;;;;;;;;;;6080436;23;20018;-60
2023/10/13 01:18:16;;;;;;;32.80;3.42;;;;;;;;;;6080248;23;20018;-60
2023/10/13 01:21:09;;;;;;;27.05;4.22;;;;;;;;;;6080392;23;20026;-60
2023/10/13 01:23:56;;;;;;;32.50;3.65;;;;;;;;;;6079778;23;20472;-61
2023/10/13 01:26:53;;;;;;;25.25;3.63;;;;;;;;;;6080455;23;20026;-60
2023/10/13 01:29:52;;;;;;;33.97;3.95;;;;;;;;;;6082053;23;20034;-60
2023/10/13 01:32:45;;;;;;;20.85;4.03;;;;;;;;;;6082139;23;21036;-60
2023/10/13 01:35:42;;;;;;;32.10;4.00;;;;;;;;;;6081870;23;20217;-45
2023/10/13 01:38:33;;;;;;;31.20;4.50;;;;;;;;;;6081013;23;20045;-48
2023/10/13 01:41:19;;;;;;;24.42;4.25;;;;;;;;;;6082359;23;20026;-49
2023/10/13 01:44:14;;;;;;;22.42;3.63;;;;;;;;;;6083465;23;20332;-47
2023/10/13 01:47:06;;;;;;;35.65;4.55;;;;;;;;;;6083652;23;20365;-46
2023/10/13 01:49:58;;;;;;;24.52;4.50;;;;;;;;;;6083830;23;20026;-67
2023/10/13 01:52:44;;;;;;;28.67;4.00;;;;;;;;;;6084465;23;20022;-57
2023/10/13 01:55:43;;;;;;;42.65;4.78;;;;;;;;;;6081737;23;20019;-58
2023/10/13 01:58:31;;;;;;;21.95;3.47;;;;;;;;;;6081219;23;20030;-58
2023/10/13 02:01:27;;;;;;;31.65;4.18;;;;;;;;;;6082242;23;20026;-60
2023/10/13 02:04:21;;;;;;;22.70;3.67;;;;;;;;;;6081157;23;20105;-56
2023/10/13 02:07:27;;;;;;;19.60;3.88;;;;;;;;;;6082678;23;20564;-57
2023/10/13 02:10:12;;;;;;;35.58;4.57;;;;;;;;;;6080604;23;20023;-56
2023/10/13 02:13:03;;;;;;;45.25;4.15;;;;;;;;;;6081877;23;20029;-60
2023/10/13 02:16:03;;;;;;;39.53;4.43;;;;;;;;;;6081580;23;20026;-61
2023/10/13 02:18:52;;;;;;;22.00;3.88;;;;;;;;;;6081275;23;20032;-61
2023/10/13 02:21:43;;;;;;;26.70;4.07;;;;;;;;;;6082394;23;20076;-61
2023/10/13 02:24:33;;;;;;;24.88;4.07;;;;;;;;;;6081553;23;20164;-61
2023/10/13 02:27:23;;;;;;;21.25;4.15;;;;;;;;;;6077730;23;20061;-66
2023/10/13 02:30:15;;;;;;;28.13;4.22;;;;;;;;;;6079540;23;20027;-59
2023/10/13 02:33:05;;;;;;;25.88;3.75;;;;;;;;;;6081322;23;20725;-59
2023/10/13 02:36:05;;;;;;;25.38;3.60;;;;;;;;;;6080651;23;20042;-59
2023/10/13 02:38:52;;;;;;;29.27;4.30;;;;;;;;;;6079648;23;20105;-60
2023/10/13 02:41:49;;;;;;;20.55;3.28;;;;;;;;;;6081574;23;20031;-59
2023/10/13 02:44:40;;;;;;;32.65;3.63;;;;;;;;;;6082120;23;20105;-58
2023/10/13 02:47:31;;;;;;;31.17;3.33;;;;;;;;;;6082345;23;20034;-59
2023/10/13 02:50:24;;;;;;;33.67;4.03;;;;;;;;;;6082028;23;20049;-57
2023/10/13 02:53:12;;;;;;;32.33;4.13;;;;;;;;;;6083092;23;20068;-56
2023/10/13 02:56:04;;;;;;;28.05;3.72;;;;;;;;;;6081645;23;20121;-55
2023/10/13 02:58:56;;;;;;;31.58;3.75;;;;;;;;;;6083244;23;20089;-55
2023/10/13 03:01:52;;;;;;;27.73;3.58;;;;;;;;;;6081805;23;20468;-58
2023/10/13 03:04:41;;;;;;;23.60;3.92;;;;;;;;;;6080173;23;20097;-61
2023/10/13 03:07:45;;;;;;;25.73;4.03;;;;;;;;;;6081334;23;20023;-58
2023/10/13 03:10:32;;;;;;;21.65;3.67;;;;;;;;;;6080259;23;20030;-56
2023/10/13 03:13:26;;;;;;;28.27;4.38;;;;;;;;;;6080595;23;20022;-54
2023/10/13 03:16:19;;;;;;;28.67;4.15;;;;;;;;;;6078706;23;20022;-56
2023/10/13 03:19:12;;;;;;;38.63;5.53;;;;;;;;;;6082401;23;20097;-58
2023/10/13 03:22:16;;;;;;;26.05;3.47;;;;;;;;;;6080863;23;20054;-54
2023/10/13 03:25:13;;;;;;;21.42;3.22;;;;;;;;;;6080105;23;20029;-60
2023/10/13 03:30:38;;;;;;;23.85;4.43;;;;;;;;;;6080122;23;20018;-61
2023/10/13 03:33:26;;;;;;;30.02;4.28;;;;;;;;;;6078882;23;20852;-63
2023/10/13 03:39:07;;;;;;;20.02;4.18;;;;;;;;;;6080656;23;20137;-60
2023/10/13 03:42:00;;;;;;;29.40;4.55;;;;;;;;;;6080163;23;20074;-55
2023/10/13 03:44:54;;;;;;;24.38;3.65;;;;;;;;;;6082079;23;20413;-51
2023/10/13 03:47:51;;;;;;;25.88;4.75;;;;;;;;;;6082858;23;20022;-48
2023/10/13 03:50:47;;;;;;;22.75;4.00;;;;;;;;;;6082267;23;20479;-48
2023/10/13 03:53:33;;;;;;;27.30;4.50;;;;;;;;;;6082140;23;20033;-49
2023/10/13 03:56:28;;;;;;;26.55;4.47;;;;;;;;;;6083369;23;20022;-49
2023/10/13 03:59:22;;;;;;;25.17;3.70;;;;;;;;;;6080160;23;20093;-60
2023/10/13 04:02:18;;;;;;;30.58;4.10;;;;;;;;;;6080245;23;20030;-61
2023/10/13 04:05:34;;;;;;;31.75;4.03;;;;;;;;;;6080742;23;20404;-60
2023/10/13 04:14:21;;;;;;;29.75;4.88;;;;;;;;;;6082246;23;20418;-60
2023/10/13 04:21:56;;;;;;;37.20;4.80;;;;;;;;;;6079809;23;20030;-49
2023/10/13 04:24:59;;;;;;;34.80;4.03;;;;;;;;;;6078672;23;20105;-47
2023/10/13 04:27:44;;;;;;;30.83;5.32;;;;;;;;;;6079707;23;20023;-47
2023/10/13 04:30:38;;;;;;;23.15;3.92;;;;;;;;;;6078882;23;20030;-48
2023/10/13 04:41:41;;;;;;;26.67;3.75;;;;;;;;;;6078071;23;20113;-57
2023/10/13 04:49:39;;;;;;;33.60;5.68;;;;;;;;;;6075854;23;20026;-56
2023/10/13 04:52:45;;;;;;;38.35;5.05;;;;;;;;;;6075837;23;20028;-54
2023/10/13 04:55:59;;;;;;;;;;;;;;;;;;6079381;23;20026;-60
2023/10/13 05:04:38;;;;;;;21.65;4.13;;;;;;;;;;6081826;23;20329;-48
2023/10/13 05:44:56;;;;;;;22.42;4.45;;;;;;;;;;6082164;23;20023;-50
2023/10/13 05:47:12;;;;;;;30.65;4.28;;;;;;;;;;6073788;23;20747;-45
2023/10/13 05:50:05;;;;;;;20.60;3.67;;;;;;;;;;6080915;23;20086;-51
2023/10/13 06:30:04;;;;;;;26.90;4.38;;;;;;;;;;6054931;23;20030;-58
2023/10/13 06:32:51;;;;;;;24.88;4.22;;;;;;;;;;6056257;23;20273;-52
2023/10/13 06:35:50;;;;;;;26.88;4.53;;;;;;;;;;6055736;23;20022;-57
2023/10/13 06:38:37;;;;;;;27.15;5.03;;;;;;;;;;6055497;23;20580;-57
2023/10/13 06:41:31;;;;;;;22.30;3.92;;;;;;;;;;6054549;23;20027;-57
2023/10/13 06:44:22;;;;;;;27.77;5.03;;;;;;;;;;6054772;23;20022;-61
2023/10/13 06:47:13;;;;;;;34.88;5.88;;;;;;;;;;6054617;23;20030;-61
2023/10/13 06:50:01;;;;;;;32.60;4.57;;;;;;;;;;6053890;23;20023;-60
2023/10/13 06:52:54;;;;;;;30.35;4.75;;;;;;;;;;6054020;23;20512;-60
2023/10/13 06:55:46;;;;;;;28.80;3.97;;;;;;;;;;6052042;23;20030;-60
2023/10/13 06:58:35;;;;;;;28.48;3.75;;;;;;;;;;6054095;23;20026;-60
2023/10/13 07:01:23;;;;;;;22.02;4.38;;;;;;;;;;6053002;23;20027;-61
2023/10/13 07:04:29;;;;;;;28.00;3.85;;;;;;;;;;6056700;23;20068;-57
2023/10/13 07:07:24;;;;;;;22.95;4.38;;;;;;;;;;6080733;23;20026;-59
2023/10/13 07:10:17;;;;;;;28.83;4.50;;;;;;;;;;6082202;23;20026;-59
2023/10/13 07:13:07;;;;;;;28.80;4.32;;;;;;;;;;6081989;23;20026;-59
2023/10/13 07:16:05;;;;;;;27.50;4.45;;;;;;;;;;6083027;23;20041;-59
2023/10/13 07:18:52;;;;;;;24.17;5.18;;;;;;;;;;6082217;23;20559;-59
2023/10/13 07:21:49;;;;;;;35.17;4.47;;;;;;;;;;6081869;23;20336;-57
2023/10/13 07:24:39;;;;;;;22.83;4.28;;;;;;;;;;6081605;23;20026;-57
2023/10/13 07:27:30;;;;;;;23.55;3.55;;;;;;;;;;6083640;23;20026;-57
2023/10/13 07:30:19;;;;;;;20.23;5.05;;;;;;;;;;6082226;23;20023;-58
2023/10/13 07:33:13;;;;;;;30.45;4.20;;;;;;;;;;6084407;23;20392;-56
2023/10/13 07:36:10;;;;;;;26.38;4.05;;;;;;;;;;6083141;23;20033;-57
2023/10/13 07:39:21;;;;;;;18.65;3.65;;;;;;;;;;6084001;23;20026;-59
2023/10/13 07:42:03;;;;;;;23.35;4.80;;;;;;;;;;6083122;23;20022;-56
2023/10/13 07:45:04;;;;;;;33.35;4.82;;;;;;;;;;6083930;23;20397;-58
2023/10/13 07:47:49;;;;;;;23.85;4.15;;;;;;;;;;6083865;23;20700;-57
2023/10/13 07:50:41;;;;;;;27.42;4.03;;;;;;;;;;6081969;23;20102;-58
2023/10/13 07:53:40;;;;;;;19.02;3.90;;;;;;;;;;6083390;23;20026;-57
2023/10/13 07:56:23;;;;;;;22.50;4.18;;;;;;;;;;6081616;23;20030;-57
2023/10/13 07:59:16;;;;;;;25.13;4.78;;;;;;;;;;6082182;23;20022;-58
2023/10/13 08:02:12;;;;;;;22.15;4.38;;;;;;;;;;6081940;23;20280;-57
2023/10/13 08:05:14;;;;;;;27.45;4.03;;;;;;;;;;6081455;23;20029;-56
2023/10/13 08:07:57;;;;;;;22.88;3.83;;;;;;;;;;6082588;23;20026;-58
2023/10/13 08:10:55;;;;;;;18.73;3.53;;;;;;;;;;6082231;23;20118;-57
2023/10/13 08:13:47;;;;;;;26.50;3.78;;;;;;;;;;6082300;23;20381;-58
2023/10/13 08:17:01;;;;;;;18.98;3.70;;;;;;;;;;6082348;23;20868;-59
2023/10/13 08:19:49;;;;;;;21.52;4.63;;;;;;;;;;6081608;23;20045;-58
2023/10/13 08:22:47;;;;;;;22.48;4.10;;;;;;;;;;6081963;23;20026;-59
2023/10/13 08:26:29;;;;;;;18.88;3.47;;;;;;;;;;6081884;23;20085;-60
2023/10/13 08:31:26;;;;;;;22.50;4.43;;;;;;;;;;6081062;23;20217;-59
2023/10/13 08:34:24;;;;;;;24.63;4.72;;;;;;;;;;6082056;23;20033;-57
2023/10/13 08:43:09;;;;;;;20.63;4.18;;;;;;;;;;6081653;23;20034;-49
2023/10/13 08:48:15;;;;;;;17.90;3.83;;;;;;;;;;6083714;23;20043;-51
2023/10/13 08:51:31;;;;;;;15.45;3.42;;;;;;;;;;6083448;23;20476;-49
2023/10/13 08:54:18;;;;;;;22.13;4.10;;;;;;;;;;6083064;23;20081;-66
2023/10/13 08:56:56;;;;;;;18.08;3.72;;;;;;;;;;6081920;23;20098;-47
2023/10/13 08:59:55;;;;;;;18.52;3.55;;;;;;;;;;6083175;23;20089;-47
2023/10/13 09:03:28;;;;;;;19.25;3.70;;;;;;;;;;6080488;23;20413;-47
2023/10/13 09:06:06;;;;;;;23.42;4.80;;;;;;;;;;6081168;23;20029;-47
2023/10/13 09:09:06;;;;;;;20.42;4.35;;;;;;;;;;6082152;23;20022;-48
2023/10/13 09:12:09;;;;;;;18.88;4.03;;;;;;;;;;6082476;23;20030;-59
2023/10/13 09:14:58;;;;;;;17.48;3.88;;;;;;;;;;6082486;23;20026;-55
2023/10/13 09:18:12;;;;;;;17.05;3.70;;;;;;;;;;6082065;23;20125;-58
2023/10/13 09:20:43;;;;;;;19.30;4.07;;;;;;;;;;6080126;23;20062;-54
2023/10/13 09:23:48;;;;;;;25.92;4.20;;;;;;;;;;6081091;23;20026;-59
2023/10/13 09:26:36;;;;;;;20.88;4.57;;;;;;;;;;6080362;23;20033;-58
2023/10/13 09:29:29;;;;;;;20.30;4.15;;;;;;;;;;6081041;23;20049;-51
2023/10/13 09:32:23;;;;;;;17.52;3.63;;;;;;;;;;6079470;23;20030;-60
2023/10/13 09:35:13;;;;;;;23.45;3.95;;;;;;;;;;6079984;23;20439;-60
2023/10/13 09:38:13;;;;;;;20.13;3.88;;;;;;;;;;6081994;23;20081;-60
2023/10/13 09:41:17;;;;;;;19.30;4.35;;;;;;;;;;6080774;23;20026;-60
2023/10/13 09:43:57;;;;;;;24.98;3.88;;;;;;;;;;6081038;23;20034;-59
2023/10/13 09:46:44;;;;;;;19.67;4.70;;;;;;;;;;6080412;23;20042;-59
2023/10/13 09:49:51;;;;;;;21.60;4.55;;;;;;;;;;6083169;23;20097;-58
2023/10/13 09:52:37;;;;;;;24.00;3.85;;;;;;;;;;6082183;23;20033;-56
2023/10/13 09:55:33;;;;;;;20.35;4.00;;;;;;;;;;6082097;23;20022;-58
2023/10/13 09:58:28;;;;;;;26.55;4.97;;;;;;;;;;6082664;23;20488;-59
2023/10/13 10:01:21;;;;;;;18.10;4.07;;;;;;;;;;6082823;23;20026;-59
2023/10/13 10:04:09;;;;;;;18.60;4.72;;;;;;;;;;6083713;23;20027;-59
2023/10/13 10:07:09;;;;;;;20.42;4.30;;;;;;;;;;6083062;23;20081;-57
2023/10/13 10:09:58;;;;;;;17.80;4.03;;;;;;;;;;6081693;23;20535;-58
2023/10/13 10:13:00;;;;;;;17.25;3.78;;;;;;;;;;6082796;23;20130;-57
2023/10/13 10:15:47;;;;;;;17.10;4.00;;;;;;;;;;6083325;23;20483;-58
2023/10/13 10:18:42;;;;;;;19.33;4.13;;;;;;;;;;6084437;23;20022;-57
2023/10/13 10:21:41;;;;;;;23.17;4.20;;;;;;;;;;6085020;23;20023;-59
2023/10/13 10:24:36;;;;;;;21.58;3.83;;;;;;;;;;6084803;23;20404;-60
2023/10/13 10:27:30;;;;;;;17.33;3.40;;;;;;;;;;6083310;23;20081;-59
2023/10/13 10:30:27;;;;;;;22.52;3.75;;;;;;;;;;6083890;23;20544;-60
2023/10/13 10:33:33;;;;;;;26.55;4.10;;;;;;;;;;6082424;23;20468;-59
2023/10/13 10:36:18;;;;;;;18.05;4.13;;;;;;;;;;6083620;23;20101;-60
2023/10/13 10:39:12;;;;;;;18.17;3.65;;;;;;;;;;6084331;23;20058;-60
2023/10/13 10:42:10;;;;;;;17.48;3.42;;;;;;;;;;6081885;23;20022;-60
2023/10/13 10:45:09;;;;;;;17.50;3.70;;;;;;;;;;6083484;23;20026;-49
2023/10/13 10:48:16;;;;;;;21.05;4.10;;;;;;;;;;6082688;23;20026;-57
2023/10/13 10:50:55;;;;;;;19.55;4.15;;;;;;;;;;6082520;23;20065;-57
2023/10/13 10:53:43;;;;;;;16.58;3.72;;;;;;;;;;6082801;23;20122;-57
2023/10/13 10:56:36;;;;;;;17.67;3.78;;;;;;;;;;6082004;23;20078;-58
2023/10/13 10:59:25;;;;;;;26.52;4.80;;;;;;;;;;6082633;23;20536;-58
2023/10/13 11:02:27;;;;;;;16.45;3.90;;;;;;;;;;6081853;23;20077;-59
2023/10/13 11:05:06;;;;;;;24.75;4.05;;;;;;;;;;6082658;23;20094;-61
2023/10/13 11:08:16;;;;;;;16.92;3.90;;;;;;;;;;6082543;23;20018;-61
2023/10/13 11:10:55;;;;;;;19.13;3.83;;;;;;;;;;6082319;23;20126;-61
2023/10/13 11:13:54;;;;;;;19.60;4.10;;;;;;;;;;6083623;23;20030;-61
2023/10/13 11:16:50;;;;;;;21.77;3.53;;;;;;;;;;6081425;23;20026;-62
2023/10/13 11:19:40;;;;;;;17.23;3.97;;;;;;;;;;6082069;23;20030;-48
2023/10/13 11:22:41;;;;;;;17.65;3.72;;;;;;;;;;6081215;23;20026;-61
2023/10/13 11:25:34;;;;;;;23.88;3.75;;;;;;;;;;6081661;23;20030;-61
2023/10/13 11:28:27;;;;;;;15.43;3.42;;;;;;;;;;6082007;23;20033;-61
2023/10/13 11:31:19;;;;;;;15.93;3.92;;;;;;;;;;6082849;23;20679;-61
2023/10/13 11:34:11;;;;;;;21.08;3.63;;;;;;;;;;6082962;23;20026;-61
2023/10/13 11:37:14;;;;;;;20.00;3.70;;;;;;;;;;6081876;23;20022;-60
2023/10/13 11:39:51;;;;;;;29.92;5.25;;;;;;;;;;6082784;23;20078;-61
2023/10/13 11:42:47;;;;;;;24.13;4.43;;;;;;;;;;6083936;23;20037;-59
2023/10/13 11:45:37;;;;;;;22.27;4.07;;;;;;;;;;6083175;23;20033;-59
2023/10/13 11:48:36;;;;;;;19.42;3.80;;;;;;;;;;6082701;23;20272;-60
2023/10/13 11:51:32;;;;;;;14.85;2.95;;;;;;;;;;6083688;23;20027;-59
2023/10/13 11:54:18;;;;;;;19.48;3.42;;;;;;;;;;6081190;23;20094;-60
2023/10/13 11:57:12;;;;;;;18.70;3.85;;;;;;;;;;6082183;23;20523;-59
2023/10/13 12:00:25;;;;;;;17.70;3.33;;;;;;;;;;6082513;23;20081;-49
2023/10/13 12:06:18;;;;;;;17.70;3.63;;;;;;;;;;6081348;23;20472;-49
2023/10/13 12:08:49;;;;;;;20.08;3.83;;;;;;;;;;6083265;23;20033;-49
2023/10/13 12:11:39;;;;;;;14.77;3.22;;;;;;;;;;6080313;23;20223;-52
2023/10/13 12:14:36;;;;;;;18.88;3.20;;;;;;;;;;6082654;23;20101;-50
2023/10/13 12:17:24;;;;;;;19.80;3.35;;;;;;;;;;6081062;23;20461;-59
2023/10/13 12:20:17;;;;;;;13.93;3.63;;;;;;;;;;6081496;23;20030;-59
2023/10/13 12:23:09;;;;;;;23.50;3.67;;;;;;;;;;6081471;23;20027;-59
2023/10/13 12:26:00;;;;;;;19.30;3.53;;;;;;;;;;6080945;23;20034;-59
2023/10/13 12:28:51;;;;;;;20.50;3.35;;;;;;;;;;6081030;23;20026;-59
2023/10/13 12:31:39;;;;;;;16.52;3.33;;;;;;;;;;6080261;23;20037;-59
2023/10/13 12:34:46;;;;;;;16.70;4.07;;;;;;;;;;6082504;23;20409;-59
2023/10/13 12:54:06;;;;;;;12.98;3.17;;;;;;;;;;6082225;23;20038;-60
2023/10/13 12:56:56;;;;;;;14.93;2.95;;;;;;;;;;6081168;23;20031;-59
2023/10/13 12:59:45;;;;;;;11.25;2.55;;;;;;;;;;6080871;23;20058;-59
2023/10/13 13:02:34;;;;;;;9.50;2.45;;;;;;;;;;6079184;23;20034;-58
2023/10/13 13:05:31;;;;;;;7.68;2.33;;;;;;;;;;6081151;23;20026;-59
2023/10/13 13:08:23;;;;;;;9.75;2.30;;;;;;;;;;6080910;23;20026;-58
2023/10/13 13:11:18;;;;;;;11.88;2.28;;;;;;;;;;6080769;23;20464;-47
2023/10/13 13:14:11;;;;;;;9.25;2.20;;;;;;;;;;6080340;23;20077;-48
2023/10/13 13:17:05;;;;;;;12.18;2.05;;;;;;;;;;6081089;23;20587;-47
2023/10/13 13:19:59;;;;;;;15.73;2.17;;;;;;;;;;6081339;23;20721;-46
2023/10/13 13:22:46;;;;;;;9.10;1.80;;;;;;;;;;6080209;23;20026;-45
2023/10/13 13:25:45;;;;;;;10.70;1.90;;;;;;;;;;6081402;23;20026;-47
2023/10/13 13:28:37;;;;;;;7.82;1.92;;;;;;;;;;6082971;23;20106;-59
2023/10/13 13:31:29;;;;;;;6.22;2.08;;;;;;;;;;6081383;23;20105;-58
2023/10/13 13:34:14;;;;;;;5.30;1.83;;;;;;;;;;6082350;23;20065;-58
2023/10/13 13:37:08;;;;;;;3.63;1.15;;;;;;;;;;6082646;23;20061;-57
2023/10/13 13:39:55;;;;;;;7.32;1.35;;;;;;;;;;6082754;23;20102;-55
2023/10/13 13:42:49;;;;;;;9.13;2.20;;;;;;;;;;6082479;23;20077;-55
2023/10/13 13:45:41;;;;;;;2.42;1.00;;;;;;;;;;6081524;23;20256;-58
2023/10/13 13:48:34;;;;;;;3.70;0.95;;;;;;;;;;6082424;23;20089;-59
2023/10/13 13:51:27;;;;;;;4.20;0.98;;;;;;;;;;6080036;23;20418;-61
2023/10/13 13:54:20;;;;;;;4.53;0.95;;;;;;;;;;6081121;23;20030;-62
2023/10/13 13:57:08;;;;;;;8.35;0.98;;;;;;;;;;6080338;23;20527;-62
2023/10/13 14:00:02;;;;;;;9.50;1.25;;;;;;;;;;6080489;23;20074;-61
2023/10/13 14:02:49;;;;;;;3.92;1.45;;;;;;;;;;6081256;23;20027;-62
2023/10/13 14:05:50;;;;;;;3.10;1.05;;;;;;;;;;6080579;23;20034;-62
2023/10/13 14:08:37;;;;;;;9.23;1.38;;;;;;;;;;6080707;23;20026;-48
2023/10/13 14:14:11;;;;;;;3.10;1.77;;;;;;;;;;6081368;23;20031;-48
2023/10/13 14:17:09;;;;;;;3.92;0.95;;;;;;;;;;6077471;23;20026;-46
2023/10/13 14:20:00;;;;;;;6.20;1.42;;;;;;;;;;6076233;23;20033;-45
2023/10/13 14:22:53;;;;;;;3.78;1.02;;;;;;;;;;6077849;23;20076;-62
2023/10/13 14:25:44;;;;;;;3.92;1.05;;;;;;;;;;6077173;23;20779;-47
2023/10/13 14:28:35;;;;;;;3.30;0.88;;;;;;;;;;6077764;23;20463;-60
2023/10/13 14:31:22;;;;;;;3.22;0.93;;;;;;;;;;6077679;23;20050;-60
2023/10/13 14:34:16;;;;;;;3.70;0.93;;;;;;;;;;6079958;23;20579;-61
2023/10/13 14:37:04;;;;;;;2.95;0.70;;;;;;;;;;6080835;23;20033;-59
2023/10/13 14:39:57;;;;;;;2.80;0.90;;;;;;;;;;6080553;23;20219;-60
2023/10/13 14:42:46;;;;;;;3.28;0.85;;;;;;;;;;6078756;23;20479;-66
2023/10/13 14:45:39;;;;;;;2.78;0.88;;;;;;;;;;6079160;23;20022;-60
2023/10/13 14:48:27;;;;;;;2.17;0.63;;;;;;;;;;6077586;23;20027;-60
2023/10/13 14:51:21;;;;;;;0.90;0.70;;;;;;;;;;6078102;23;20046;-60
2023/10/13 14:54:15;;;;;;;3.65;0.80;;;;;;;;;;6079853;23;20030;-60
2023/10/13 14:57:02;;;;;;;4.20;0.70;;;;;;;;;;6078872;23;20026;-60
2023/10/13 14:59:57;;;;;;;0.80;0.50;;;;;;;;;;6078480;23;20022;-58
2023/10/13 15:02:44;;;;;;;3.30;0.60;;;;;;;;;;6078852;23;20350;-67
2023/10/13 15:05:44;;;;;;;0.20;0.13;;;;;;;;;;6078150;23;20315;-52
2023/10/13 15:08:31;;;;;;;1.67;0.65;;;;;;;;;;6076374;23;20026;-48
2023/10/13 15:11:27;;;;;;;0.52;0.45;;;;;;;;;;6075707;23;20113;-52
2023/10/13 15:14:16;;;;;;;1.02;0.40;;;;;;;;;;6078141;23;20144;-48
2023/10/13 15:17:10;;;;;;;0.20;0.20;;;;;;;;;;6078274;23;20082;-52
2023/10/13 15:19:59;;;;;;;0.40;0.40;;;;;;;;;;6077457;23;20058;-48
2023/10/13 15:22:59;;;;;;;0.32;0.20;;;;;;;;;;6078642;23;20030;-60
2023/10/13 15:25:49;;;;;;;0.55;0.40;;;;;;;;;;6078335;23;20022;-60
2023/10/13 15:28:37;;;;;;;0.60;0.30;;;;;;;;;;6078748;23;20030;-62
2023/10/13 15:34:14;;;;;;;0.93;0.60;;;;;;;;;;6078780;23;20250;-60
2023/10/13 15:37:04;;;;;;;0.90;0.60;;;;;;;;;;6078687;23;20101;-58
2023/10/13 15:39:57;;;;;;;0.20;0.20;;;;;;;;;;6079758;23;20033;-58
2023/10/13 15:42:47;;;;;;;0.43;0.40;;;;;;;;;;6076089;23;20070;-59
2023/10/13 15:45:42;;;;;;;0.63;0.30;;;;;;;;;;6075789;23;20101;-58
2023/10/13 15:48:48;;;;;;;1.48;0.40;;;;;;;;;;6076523;23;20058;-58
2023/10/13 15:51:42;;;;;;;0.20;0.20;;;;;;;;;;6079143;23;20062;-59
2023/10/13 15:54:29;;;;;;;0.22;0.22;;;;;;;;;;6079672;23;20058;-57
2023/10/13 15:57:23;;;;;;;1.40;0.70;;;;;;;;;;6078810;23;20081;-63
2023/10/13 16:00:23;;;;;;;0.75;0.32;;;;;;;;;;6077797;23;20069;-59
2023/10/13 16:03:17;;;;;;;0.20;0.20;;;;;;;;;;6078360;23;20337;-59
2023/10/13 16:06:11;;;;;;;1.52;0.50;;;;;;;;;;6077290;23;20066;-59
2023/10/13 16:09:15;;;;;;;0.73;0.40;;;;;;;;;;6082214;23;20027;-58
2023/10/13 16:12:05;;;;;;;0.28;0.28;;;;;;;;;;6080126;23;20018;-59
2023/10/13 16:14:58;;;;;;;0.57;0.40;;;;;;;;;;6078374;23;20026;-51
2023/10/13 16:17:45;;;;;;;0.10;0.10;;;;;;;;;;6077563;23;20105;-48
2023/10/13 16:20:40;;;;;;;0.30;0.30;;;;;;;;;;6078841;23;20540;-51
2023/10/13 16:23:27;;;;;;;1.60;0.40;;;;;;;;;;6076858;23;20053;-45
2023/10/13 16:26:22;;;;;;;0.77;0.60;;;;;;;;;;6079303;23;20392;-50
2023/10/13 16:29:09;;;;;;;0.77;0.63;;;;;;;;;;6078348;23;20026;-50
2023/10/13 16:32:03;;;;;;;7.95;7.25;;;;;;;;;;6080397;23;20205;-64
2023/10/13 16:34:50;;;;;;;2.53;2.17;;;;;;;;;;6082621;23;20097;-63
2023/10/13 16:37:50;;;;;;;3.55;2.92;;;;;;;;;;6079018;23;20519;-64
2023/10/13 16:40:35;;;;;;;3.08;2.50;;;;;;;;;;6078784;23;20130;-64
2023/10/13 16:43:33;;;;;;;3.58;2.03;;;;;;;;;;6079082;23;20030;-63
2023/10/13 16:46:17;;;;;;;6.57;3.63;;;;;;;;;;6078585;23;20034;-62
2023/10/13 16:49:11;;;;;;;5.45;1.77;;;;;;;;;;6078453;23;20027;-63
2023/10/13 16:52:04;;;;;;;6.30;2.40;;;;;;;;;;6077107;23;20630;-59
2023/10/13 16:54:51;;;;;;;5.45;2.13;;;;;;;;;;6077746;23;20027;-63
2023/10/13 16:57:45;;;;;;;3.80;1.90;;;;;;;;;;6073837;23;20033;-64
2023/10/13 17:00:28;;;;;;;14.13;2.67;;;;;;;;;;6074837;23;20373;-62
2023/10/13 17:03:06;;;;;;;5.13;2.90;;;;;;;;;;6074322;23;20027;-62
2023/10/13 17:06:07;;;;;;;9.30;2.28;;;;;;;;;;6076972;23;20377;-63
2023/10/13 17:09:11;;;;;;;8.13;1.85;;;;;;;;;;6077927;23;20461;-60
2023/10/13 17:11:53;;;;;;;10.30;2.10;;;;;;;;;;6077460;23;20023;-58
2023/10/13 17:14:48;;;;;;;6.68;1.80;;;;;;;;;;6077055;23;20026;-60
2023/10/13 17:17:15;;;;;;;11.02;2.13;;;;;;;;;;6075771;23;20030;-59
2023/10/13 17:19:49;;;;;;;17.67;2.35;;;;;;;;;;6076810;23;20547;-58
2023/10/13 17:22:37;;;;;;;15.50;2.65;;;;;;;;;;6078909;23;20034;-58
2023/10/13 17:25:25;;;;;;;6.82;2.03;;;;;;;;;;6078737;23;20034;-60
2023/10/13 17:27:59;;;;;;;17.85;2.17;;;;;;;;;;6074468;23;20026;-66
2023/10/13 17:30:26;;;;;;;14.00;2.70;;;;;;;;;;6075030;23;20038;-61
2023/10/13 17:33:20;;;;;;;8.18;2.35;;;;;;;;;;6070504;23;20033;-61
2023/10/13 17:36:08;;;;;;;17.50;2.58;;;;;;;;;;6077330;23;20058;-60
2023/10/13 17:39:03;;;;;;;16.30;2.35;;;;;;;;;;6075705;23;20098;-60
2023/10/13 17:41:49;;;;;;;10.27;1.63;;;;;;;;;;6075581;23;20022;-61
2023/10/13 17:44:43;;;;;;;7.78;2.00;;;;;;;;;;6073961;23;20026;-60
2023/10/13 17:47:30;;;;;;;6.47;1.63;;;;;;;;;;6074592;23;20114;-58
2023/10/13 17:50:24;;;;;;;7.30;2.20;;;;;;;;;;6076315;23;20022;-62
2023/10/13 17:53:18;;;;;;;11.52;1.83;;;;;;;;;;6078181;23;20026;-62
2023/10/13 17:56:12;;;;;;;6.13;2.03;;;;;;;;;;6077352;23;20022;-61
2023/10/13 17:59:05;;;;;;;5.00;1.23;;;;;;;;;;6078446;23;20057;-62
2023/10/13 18:01:53;;;;;;;7.28;1.55;;;;;;;;;;6079093;23;20322;-62
2023/10/13 18:04:47;;;;;;;15.45;1.42;;;;;;;;;;6079855;23;20571;-61
2023/10/13 18:07:40;;;;;;;6.65;1.23;;;;;;;;;;6079241;23;20397;-60
2023/10/13 18:10:36;;;;;;;10.15;1.50;;;;;;;;;;6080104;23;20026;-59
2023/10/13 18:13:22;;;;;;;11.20;1.33;;;;;;;;;;6079232;23;20065;-60
2023/10/13 18:16:16;;;;;;;16.05;2.17;;;;;;;;;;6078813;23;20484;-59
2023/10/13 18:19:07;;;;;;;18.98;1.83;;;;;;;;;;6078368;23;20022;-59
2023/10/13 18:21:58;;;;;;;9.77;1.40;;;;;;;;;;6079781;23;20030;-56
2023/10/13 18:24:45;;;;;;;6.18;1.30;;;;;;;;;;6079632;23;20030;-52
2023/10/13 18:27:42;;;;;;;7.00;1.02;;;;;;;;;;6078058;23;20022;-59
2023/10/13 18:30:31;;;;;;;11.13;1.75;;;;;;;;;;6080053;23;20461;-59
2023/10/13 18:33:23;;;;;;;13.90;1.88;;;;;;;;;;6077231;23;20026;-59
2023/10/13 18:36:17;;;;;;;12.93;1.67;;;;;;;;;;6079631;23;20551;-59
2023/10/13 18:39:18;;;;;;;11.98;1.65;;;;;;;;;;6076656;23;20036;-59
2023/10/13 18:41:59;;;;;;;18.77;2.00;;;;;;;;;;6078536;23;20032;-59
2023/10/13 18:44:56;;;;;;;10.77;2.30;;;;;;;;;;6077218;23;20030;-59
2023/10/13 18:47:39;;;;;;;22.45;2.30;;;;;;;;;;6078842;23;20392;-59
2023/10/13 18:50:33;;;;;;;9.75;1.95;;;;;;;;;;6079165;23;20754;-58
2023/10/13 18:53:20;;;;;;;7.22;1.67;;;;;;;;;;6077670;23;20259;-59
2023/10/13 18:56:16;;;;;;;7.22;1.35;;;;;;;;;;6079298;23;20093;-59
2023/10/13 18:59:03;;;;;;;16.00;1.88;;;;;;;;;;6080050;23;20026;-59
2023/10/13 19:01:57;;;;;;;21.02;1.92;;;;;;;;;;6081817;23;20090;-60
2023/10/13 19:04:45;;;;;;;15.43;1.60;;;;;;;;;;6076878;23;20030;-60
2023/10/13 19:07:44;;;;;;;9.85;1.55;;;;;;;;;;6079043;23;20127;-60
2023/10/13 19:10:31;;;;;;;11.50;1.40;;;;;;;;;;6078378;23;20030;-60
2023/10/13 19:13:26;;;;;;;9.10;1.50;;;;;;;;;;6075669;23;20030;-60
2023/10/13 19:16:25;;;;;;;6.93;1.48;;;;;;;;;;6077963;23;20634;-60
2023/10/13 19:19:16;;;;;;;12.30;1.75;;;;;;;;;;6076151;23;20027;-64
2023/10/13 19:22:06;;;;;;;13.68;2.55;;;;;;;;;;6078951;23;20415;-49
2023/10/13 19:24:58;;;;;;;9.65;2.10;;;;;;;;;;6077071;23;20110;-52
2023/10/13 19:27:45;;;;;;;10.52;2.00;;;;;;;;;;6076076;23;20029;-52